createdAt,value
2023-04-02T00:00:28.625Z,99383.95
2023-04-02T00:03:35.288Z,99389.20
2023-04-02T00:06:49.688Z,99390.05
2023-04-02T00:09:54.704Z,99387.00
2023-04-02T00:13:22.165Z,99392.09
2023-04-02T00:16:30.386Z,99386.30
2023-04-02T00:19:40.423Z,99398.70
2023-04-02T00:22:46.248Z,99401.23
2023-04-02T00:25:54.239Z,99400.20
2023-04-02T00:28:59.628Z,99414.81
2023-04-02T00:32:08.580Z,99414.48
2023-04-02T00:35:14.160Z,99409.20
2023-04-02T00:38:20.145Z,99403.61
2023-04-02T00:41:36.457Z,99411.26
2023-04-02T00:44:41.417Z,99403.77
2023-04-02T00:47:51.619Z,99403.11
2023-04-02T00:50:57.022Z,99411.58
2023-04-02T00:54:02.692Z,99409.89
2023-04-02T00:57:09.992Z,99408.48
2023-04-02T01:00:43.144Z,99404.78
2023-04-02T01:03:51.071Z,99408.67
2023-04-02T01:06:58.225Z,99402.21
2023-04-02T01:10:30.395Z,99411.54
2023-04-02T01:14:07.044Z,99404.92
2023-04-02T01:17:56.513Z,99408.02
2023-04-02T01:21:38.587Z,99406.67
2023-04-02T01:24:46.585Z,99404.83
2023-04-02T01:27:59.820Z,99404.66
2023-04-02T01:31:08.915Z,99401.26
2023-04-02T01:34:13.900Z,99398.55
2023-04-02T01:37:56.410Z,99400.09
2023-04-02T01:41:08.067Z,99401.27
2023-04-02T01:44:30.168Z,99400.75
2023-04-02T01:47:37.906Z,99399.91
2023-04-02T01:50:45.891Z,99400.91
2023-04-02T01:53:33.776Z,99403.47
2023-04-02T01:56:26.469Z,99411.44
2023-04-02T01:59:22.637Z,99408.05
2023-04-02T02:02:30.265Z,99405.86
2023-04-02T02:05:37.775Z,99403.62
2023-04-02T02:09:02.396Z,99396.17
2023-04-02T02:12:09.755Z,99400.58
2023-04-02T02:15:16.152Z,99402.96
2023-04-02T02:18:22.587Z,99394.81
2023-04-02T02:21:29.153Z,99392.94
2023-04-02T02:24:40.291Z,99390.89
2023-04-02T02:27:50.597Z,99391.22
2023-04-02T02:31:07.772Z,99397.48
2023-04-02T02:34:23.507Z,99395.47
2023-04-02T02:37:42.222Z,99398.70
2023-04-02T02:40:55.738Z,99402.59
2023-04-02T02:43:59.962Z,99407.70
2023-04-02T02:47:04.823Z,99401.75
2023-04-02T02:50:11.301Z,99409.38
2023-04-02T02:53:20.797Z,99404.28
2023-04-02T02:56:28.672Z,99407.50
2023-04-02T02:59:34.259Z,99407.98
2023-04-02T03:02:41.521Z,99417.30
2023-04-02T03:05:47.809Z,99415.79
2023-04-02T03:09:19.045Z,99424.98
2023-04-02T03:13:06.928Z,99422.92
2023-04-02T03:16:34.816Z,99431.45
2023-04-02T03:19:38.379Z,99433.28
2023-04-02T03:22:29.963Z,99430.05
2023-04-02T03:25:44.806Z,99431.95
2023-04-02T03:28:44.494Z,99437.02
2023-04-02T03:32:16.179Z,99440.58
2023-04-02T03:35:35.125Z,99443.31
2023-04-02T03:39:03.114Z,99444.66
2023-04-02T03:42:32.415Z,99436.87
2023-04-02T03:45:41.560Z,99433.92
2023-04-02T03:49:01.385Z,99435.80
2023-04-02T03:52:21.621Z,99434.80
2023-04-02T03:55:37.089Z,99441.42
2023-04-02T03:59:02.522Z,99439.75
2023-04-02T04:02:41.736Z,99440.37
2023-04-02T04:05:55.188Z,99444.47
2023-04-02T04:09:09.027Z,99439.22
2023-04-02T04:12:38.103Z,99438.38
2023-04-02T04:16:03.144Z,99449.11
2023-04-02T04:19:19.771Z,99451.78
2023-04-02T04:22:40.472Z,99447.89
2023-04-02T04:25:48.495Z,99446.47
2023-04-02T04:29:35.032Z,99452.16
2023-04-02T04:32:45.331Z,99451.64
2023-04-02T04:36:03.168Z,99452.67
2023-04-02T04:39:08.027Z,99453.85
2023-04-02T04:42:15.974Z,99451.83
2023-04-02T04:45:45.140Z,99450.41
2023-04-02T04:49:20.528Z,99449.38
2023-04-02T04:52:37.707Z,99450.86
2023-04-02T04:55:53.732Z,99450.34
2023-04-02T04:59:25.763Z,99454.07
2023-04-02T05:02:24.231Z,99449.67
2023-04-02T05:05:34.506Z,99453.23
2023-04-02T05:08:44.106Z,99450.02
2023-04-02T05:11:56.341Z,99451.70
2023-04-02T05:15:22.394Z,99444.75
2023-04-02T05:18:55.780Z,99454.22
2023-04-02T05:22:14.431Z,99458.34
2023-04-02T05:25:35.465Z,99460.36
2023-04-02T05:28:59.505Z,99454.84
2023-04-02T05:32:31.437Z,99450.85
2023-04-02T05:35:40.287Z,99446.29
2023-04-02T05:38:48.673Z,99449.44
2023-04-02T05:41:58.817Z,99447.47
2023-04-02T05:45:43.571Z,99448.83
2023-04-02T05:48:55.083Z,99444.13
2023-04-02T05:51:58.367Z,99449.25
2023-04-02T05:55:34.349Z,99443.75
2023-04-02T05:59:02.886Z,99448.41
2023-04-02T06:02:18.097Z,99445.44
2023-04-02T06:05:30.216Z,99447.30
2023-04-02T06:08:42.649Z,99435.23
2023-04-02T06:11:54.063Z,99451.94
2023-04-02T06:15:01.460Z,99451.26
2023-04-02T06:18:09.974Z,99440.61
2023-04-02T06:21:16.992Z,99439.70
2023-04-02T06:24:25.380Z,99439.13
2023-04-02T06:27:31.768Z,99442.46
2023-04-02T06:30:43.757Z,99438.27
2023-04-02T06:33:51.859Z,99447.08
2023-04-02T06:36:59.643Z,99448.44
2023-04-02T06:40:07.360Z,99453.56
2023-04-02T06:43:14.231Z,99457.97
2023-04-02T06:46:35.539Z,99448.66
2023-04-02T06:49:55.062Z,99451.59
2023-04-02T06:53:06.381Z,99446.61
2023-04-02T06:56:38.387Z,99447.84
2023-04-02T06:59:46.581Z,99453.59
2023-04-02T07:02:55.240Z,99453.37
2023-04-02T07:06:01.095Z,99448.00
2023-04-02T07:09:07.749Z,99448.62
2023-04-02T07:12:16.582Z,99451.02
2023-04-02T07:15:26.738Z,99451.29
2023-04-02T07:18:46.801Z,99451.02
2023-04-02T07:21:53.263Z,99448.46
2023-04-02T07:25:00.208Z,99446.13
2023-04-02T07:28:08.641Z,99445.80
2023-04-02T07:31:14.465Z,99450.59
2023-04-02T07:34:20.719Z,99447.04
2023-04-02T07:37:28.056Z,99451.97
2023-04-02T07:40:35.310Z,99442.77
2023-04-02T07:43:42.623Z,99448.95
2023-04-02T07:46:41.161Z,99432.91
2023-04-02T07:49:47.319Z,99432.56
2023-04-02T07:52:59.192Z,99431.63
2023-04-02T07:56:08.469Z,99424.03
2023-04-02T07:59:13.552Z,99421.41
2023-04-02T08:02:19.353Z,99426.94
2023-04-02T08:05:25.751Z,99424.09
2023-04-02T08:08:32.098Z,99425.20
2023-04-02T08:11:37.759Z,99421.83
2023-04-02T08:14:45.729Z,99413.53
2023-04-02T08:17:51.651Z,99416.93
2023-04-02T08:20:57.847Z,99416.93
2023-04-02T08:24:03.827Z,99409.34
2023-04-02T08:27:11.698Z,99409.73
2023-04-02T08:30:17.869Z,99399.53
2023-04-02T08:33:25.039Z,99408.02
2023-04-02T08:36:33.080Z,99401.16
2023-04-02T08:39:41.564Z,99404.06
2023-04-02T08:43:18.229Z,99402.40
2023-04-02T08:46:35.810Z,99392.23
2023-04-02T08:49:59.078Z,99398.73
2023-04-02T08:53:04.940Z,99397.61
2023-04-02T08:56:36.268Z,99400.40
2023-04-02T08:59:48.487Z,99409.34
2023-04-02T09:03:01.171Z,99416.81
2023-04-02T09:06:07.472Z,99419.06
2023-04-02T09:09:13.724Z,99425.93
2023-04-02T09:12:19.348Z,99421.61
2023-04-02T09:15:38.553Z,99428.22
2023-04-02T09:18:45.413Z,99431.63
2023-04-02T09:21:58.080Z,99435.52
2023-04-02T09:25:11.786Z,99436.08
2023-04-02T09:28:18.449Z,99440.25
2023-04-02T09:31:52.251Z,99437.83
2023-04-02T09:34:58.930Z,99450.20
2023-04-02T09:38:31.632Z,99453.47
2023-04-02T09:41:38.407Z,99445.52
2023-04-02T09:44:44.175Z,99451.72
2023-04-02T09:47:50.507Z,99453.58
2023-04-02T09:50:57.509Z,99454.55
2023-04-02T09:54:04.056Z,99451.39
2023-04-02T09:57:17.883Z,99438.80
2023-04-02T10:00:37.862Z,99443.42
2023-04-02T10:03:48.294Z,99432.20
2023-04-02T10:06:55.825Z,99438.45
2023-04-02T10:10:01.306Z,99430.91
2023-04-02T10:13:28.323Z,99429.86
2023-04-02T10:16:45.961Z,99410.34
2023-04-02T10:19:57.317Z,99404.13
2023-04-02T10:23:04.934Z,99401.84
2023-04-02T10:26:29.176Z,99404.06
2023-04-02T10:29:42.593Z,99394.14
2023-04-02T10:33:14.783Z,99390.06
2023-04-02T10:36:24.414Z,99394.38
2023-04-02T10:39:45.191Z,99396.06
2023-04-02T10:42:58.260Z,99392.48
2023-04-02T10:46:13.040Z,99392.13
2023-04-02T10:49:40.777Z,99395.88
2023-04-02T10:52:42.835Z,99393.33
2023-04-02T10:55:33.299Z,99390.95
2023-04-02T10:58:36.210Z,99399.15
2023-04-02T11:01:39.928Z,99393.97
2023-04-02T11:05:01.265Z,99391.36
2023-04-02T11:08:14.569Z,99396.53
2023-04-02T11:11:32.842Z,99377.00
2023-04-02T11:14:44.007Z,99383.84
2023-04-02T11:17:50.594Z,99388.33
2023-04-02T11:21:17.210Z,99385.45
2023-04-02T11:24:40.310Z,99384.60
2023-04-02T11:27:47.269Z,99384.55
2023-04-02T11:30:53.343Z,99385.70
2023-04-02T11:33:59.143Z,99373.06
2023-04-02T11:37:13.422Z,99373.90
2023-04-02T11:40:22.861Z,99374.30
2023-04-02T11:43:51.868Z,99380.12
2023-04-02T11:46:57.912Z,99367.66
2023-04-02T11:50:13.911Z,99379.33
2023-04-02T11:53:28.173Z,99375.05
2023-04-02T11:56:53.344Z,99382.97
2023-04-02T12:00:06.228Z,99368.54
2023-04-02T12:03:39.724Z,99371.03
2023-04-02T12:07:04.072Z,99375.34
2023-04-02T12:10:14.376Z,99372.27
2023-04-02T12:13:24.000Z,99390.48
2023-04-02T12:16:28.910Z,99386.32
2023-04-02T12:19:37.727Z,99384.19
2023-04-02T12:22:48.715Z,99387.45
2023-04-02T12:25:56.169Z,99388.19
2023-04-02T12:29:02.582Z,99394.48
2023-04-02T12:32:11.290Z,99383.97
2023-04-02T12:35:16.175Z,99379.38
2023-04-02T12:38:40.678Z,99384.73
2023-04-02T12:41:47.478Z,99407.61
2023-04-02T12:44:53.503Z,99392.89
2023-04-02T12:48:02.577Z,99387.80
2023-04-02T12:51:07.692Z,99393.17
2023-04-02T12:54:13.423Z,99390.17
2023-04-02T12:57:42.761Z,99387.38
2023-04-02T13:00:50.559Z,99385.39
2023-04-02T13:03:57.241Z,99389.59
2023-04-02T13:07:07.744Z,99388.03
2023-04-02T13:10:19.118Z,99391.31
2023-04-02T13:13:32.091Z,99388.76
2023-04-02T13:16:51.275Z,99384.31
2023-04-02T13:19:57.072Z,99384.69
2023-04-02T13:23:03.792Z,99389.58
2023-04-02T13:26:11.896Z,99388.80
2023-04-02T13:29:39.349Z,99395.99
2023-04-02T13:32:46.158Z,99403.72
2023-04-02T13:35:53.593Z,99408.45
2023-04-02T13:39:00.122Z,99417.30
2023-04-02T13:42:14.917Z,99412.25
2023-04-02T13:45:20.960Z,99409.91
2023-04-02T13:48:32.093Z,99406.73
2023-04-02T13:51:54.635Z,99414.18
2023-04-02T13:55:08.046Z,99412.81
2023-04-02T13:58:13.872Z,99411.00
2023-04-02T14:01:20.806Z,99416.04
2023-04-02T14:04:28.534Z,99408.41
2023-04-02T14:08:02.456Z,99416.19
2023-04-02T14:11:35.282Z,99413.30
2023-04-02T14:15:07.440Z,99403.29
2023-04-02T14:18:39.567Z,99399.18
2023-04-02T14:21:51.958Z,99395.29
2023-04-02T14:25:21.503Z,99397.81
2023-04-02T14:28:49.724Z,99405.59
2023-04-02T14:32:14.352Z,99406.45
2023-04-02T14:35:39.563Z,99404.19
2023-04-02T14:39:01.666Z,99400.92
2023-04-02T14:42:13.084Z,99396.41
2023-04-02T14:45:41.534Z,99391.27
2023-04-02T14:49:26.109Z,99392.61
2023-04-02T14:52:34.806Z,99393.22
2023-04-02T14:55:53.342Z,99382.89
2023-04-02T14:59:03.608Z,99373.39
2023-04-02T15:02:39.591Z,99377.30
2023-04-02T15:06:09.305Z,99374.77
2023-04-02T15:09:21.874Z,99370.36
2023-04-02T15:12:37.121Z,99376.42
2023-04-02T15:16:11.867Z,99373.89
2023-04-02T15:19:18.538Z,99370.80
2023-04-02T15:22:54.018Z,99357.05
2023-04-02T15:26:05.120Z,99354.67
2023-04-02T15:29:34.872Z,99357.60
2023-04-02T15:32:55.703Z,99360.32
2023-04-02T15:36:05.009Z,99357.91
2023-04-02T15:39:14.703Z,99351.95
2023-04-02T15:42:31.890Z,99355.70
2023-04-02T15:46:17.129Z,99351.77
2023-04-02T15:49:43.519Z,99353.05
2023-04-02T15:53:02.062Z,99350.98
2023-04-02T15:56:32.248Z,99351.11
2023-04-02T16:00:18.401Z,99360.98
2023-04-02T16:03:49.796Z,99351.45
2023-04-02T16:07:10.318Z,99358.77
2023-04-02T16:10:41.263Z,99361.27
2023-04-02T16:13:51.490Z,99353.92
2023-04-02T16:16:57.377Z,99349.45
2023-04-02T16:20:07.499Z,99350.85
2023-04-02T16:23:21.273Z,99354.09
2023-04-02T16:26:55.530Z,99346.77
2023-04-02T16:30:26.417Z,99343.42
2023-04-02T16:33:46.935Z,99338.61
2023-04-02T16:37:28.593Z,99331.17
2023-04-02T16:41:07.529Z,99337.22
2023-04-02T16:44:31.839Z,99340.22
2023-04-02T16:48:23.679Z,99332.13
2023-04-02T16:51:56.172Z,99334.38
2023-04-02T16:55:11.197Z,99335.26
2023-04-02T16:58:46.048Z,99340.72
2023-04-02T17:02:33.476Z,99344.43
2023-04-02T17:05:49.946Z,99341.54
2023-04-02T17:09:38.996Z,99342.55
2023-04-02T17:13:08.493Z,99346.76
2023-04-02T17:16:22.464Z,99339.82
2023-04-02T17:19:30.464Z,99333.88
2023-04-02T17:22:35.884Z,99329.59
2023-04-02T17:25:51.315Z,99332.66
2023-04-02T17:28:57.182Z,99329.91
2023-04-02T17:32:03.362Z,99329.25
2023-04-02T17:35:10.837Z,99330.91
2023-04-02T17:38:30.286Z,99326.51
2023-04-02T17:41:40.483Z,99329.55
2023-04-02T17:45:09.087Z,99325.45
2023-04-02T17:48:24.647Z,99328.86
2023-04-02T17:51:50.618Z,99320.76
2023-04-02T17:55:11.781Z,99323.78
2023-04-02T17:58:53.309Z,99317.29
2023-04-02T18:02:35.850Z,99319.52
2023-04-02T18:05:49.605Z,99320.36
2023-04-02T18:09:54.004Z,99322.73
2023-04-02T18:13:11.751Z,99312.17
2023-04-02T18:16:38.753Z,99303.98
2023-04-02T18:19:50.498Z,99306.38
2023-04-02T18:23:04.159Z,99303.66
2023-04-02T18:26:45.924Z,99299.28
2023-04-02T18:30:19.512Z,99292.27
2023-04-02T18:33:39.656Z,99291.17
2023-04-02T18:37:22.117Z,99283.17
2023-04-02T18:40:33.520Z,99290.91
2023-04-02T18:43:49.722Z,99288.80
2023-04-02T18:47:07.085Z,99280.25
2023-04-02T18:50:26.669Z,99275.84
2023-04-02T18:53:33.439Z,99276.30
2023-04-02T18:56:39.157Z,99276.81
2023-04-02T19:00:14.925Z,99263.27
2023-04-02T19:03:28.001Z,99274.12
2023-04-02T19:06:41.251Z,99263.98
2023-04-02T19:09:56.026Z,99268.58
2023-04-02T19:13:02.564Z,99267.98
2023-04-02T19:16:13.296Z,99265.45
2023-04-02T19:19:43.468Z,99269.56
2023-04-02T19:23:19.784Z,99271.52
2023-04-02T19:26:33.501Z,99272.33
2023-04-02T19:29:43.913Z,99275.83
2023-04-02T19:33:39.467Z,99278.22
2023-04-02T19:37:07.671Z,99268.05
2023-04-02T19:40:59.900Z,99265.16
2023-04-02T19:44:05.868Z,99266.27
2023-04-02T19:47:10.243Z,99259.34
2023-04-02T19:50:16.248Z,99260.18
2023-04-02T19:53:22.778Z,99258.16
2023-04-02T19:56:29.234Z,99261.48
2023-04-02T19:59:34.771Z,99257.24
2023-04-02T20:02:40.746Z,99248.62
2023-04-02T20:05:46.739Z,99245.98
2023-04-02T20:08:53.292Z,99248.72
2023-04-02T20:11:58.898Z,99247.60
2023-04-02T20:15:04.590Z,99239.60
2023-04-02T20:18:10.938Z,99238.23
2023-04-02T20:21:21.898Z,99238.13
2023-04-02T20:24:27.129Z,99228.40
2023-04-02T20:27:33.024Z,99228.95
2023-04-02T20:30:39.742Z,99223.08
2023-04-02T20:33:38.691Z,99235.12
2023-04-02T20:36:37.468Z,99221.22
2023-04-02T20:39:44.244Z,99224.44
2023-04-02T20:42:49.785Z,99220.83
2023-04-02T20:45:56.608Z,99221.16
2023-04-02T20:49:02.729Z,99218.59
2023-04-02T20:52:09.358Z,99222.00
2023-04-02T20:55:14.917Z,99214.26
2023-04-02T20:58:20.431Z,99210.70
2023-04-02T21:01:41.400Z,99215.50
2023-04-02T21:04:47.798Z,99207.88
2023-04-02T21:07:55.324Z,99201.74
2023-04-02T21:11:01.921Z,99190.71
2023-04-02T21:14:08.587Z,99191.27
2023-04-02T21:17:14.210Z,99191.20
2023-04-02T21:20:21.452Z,99190.16
2023-04-02T21:23:27.365Z,99187.76
2023-04-02T21:26:34.829Z,99172.86
2023-04-02T21:29:40.701Z,99177.42
2023-04-02T21:32:47.310Z,99177.13
2023-04-02T21:35:52.965Z,99177.16
2023-04-02T21:39:07.862Z,99172.13
2023-04-02T21:42:14.707Z,99169.95
2023-04-02T21:45:21.646Z,99164.51
2023-04-02T21:48:27.951Z,99162.97
2023-04-02T21:51:38.508Z,99150.56
2023-04-02T21:54:38.552Z,99146.98
2023-04-02T21:57:44.264Z,99148.34
2023-04-02T22:00:49.107Z,99140.06
2023-04-02T22:03:55.412Z,99140.52
2023-04-02T22:07:01.768Z,99134.97
2023-04-02T22:10:08.594Z,99133.59
2023-04-02T22:13:15.271Z,99126.59
2023-04-02T22:16:24.424Z,99130.11
2023-04-02T22:19:24.334Z,99131.13
2023-04-02T22:22:17.704Z,99123.70
2023-04-02T22:25:24.606Z,99116.75
2023-04-02T22:28:29.993Z,99120.94
2023-04-02T22:31:37.753Z,99114.31
2023-04-02T22:34:46.381Z,99114.31
2023-04-02T22:37:51.634Z,99110.13
2023-04-02T22:40:58.718Z,99105.70
2023-04-02T22:44:04.504Z,99104.86
2023-04-02T22:47:10.787Z,99101.37
2023-04-02T22:50:16.489Z,99102.90
2023-04-02T22:53:21.825Z,99102.22
2023-04-02T22:56:31.631Z,99099.09
2023-04-02T22:59:37.020Z,99098.47
2023-04-02T23:02:37.156Z,99096.21
2023-04-02T23:05:43.815Z,99082.87
2023-04-02T23:08:50.054Z,99083.14
2023-04-02T23:11:56.518Z,99072.30
2023-04-02T23:15:05.289Z,99065.39
2023-04-02T23:18:11.772Z,99069.47
2023-04-02T23:21:17.397Z,99062.16
2023-04-02T23:24:26.546Z,99066.83
2023-04-02T23:27:31.583Z,99050.16
2023-04-02T23:30:38.508Z,99050.98
2023-04-02T23:33:39.015Z,99041.01
2023-04-02T23:36:48.749Z,99033.50
2023-04-02T23:39:55.648Z,99037.00
2023-04-02T23:43:01.465Z,99039.68
2023-04-02T23:46:08.303Z,99038.55
2023-04-02T23:49:16.768Z,99035.31
2023-04-02T23:52:22.435Z,99035.95
2023-04-02T23:55:28.241Z,99025.99
2023-04-02T23:58:34.897Z,99026.53
